Terminal Aerodrome Forecast
Issued by NWS Cleveland, OH

Home | Current Version | Previous Version | Graphics & Text | Print | Product List | Glossary On
Versions: 1 2 3 4 5 6 7 8 9 10 11 12 13 14 15 16 17 18 19 20 21
000
FTUS41 KCLE 191700
TAFTOL
TAF
KTOL 191720Z 1918/2018 17012G20KT 3SM -SN BR OVC025
      TEMPO 1918/1919 1 1/2SM -SN BR OVC015
     FM192000 21014G22KT P6SM -SN SCT025 OVC045
     FM192200 23015G25KT 5SM -SN OVC025
     FM200600 25018G26KT P6SM SCT025 OVC045
     FM201200 24014KT P6SM OVC025=

USA.gov is the U.S. government's official web portal to all federal, state and local government web resources and services.